sensor_id;sensor_type;location;lat;lon;timestamp;pressure;altitude;pressure_sealevel;temperature
76007;BMP280;64699;0.000;0.000;2023-09-19T00:00:19;99935.78;;;21.59
76007;BMP280;64699;0.000;0.000;2023-09-19T00:02:54;99919.59;;;21.56
76007;BMP280;64699;0.000;0.000;2023-09-19T00:05:20;99918.84;;;21.56
76007;BMP280;64699;0.000;0.000;2023-09-19T00:07:49;99912.63;;;21.55
76007;BMP280;64699;0.000;0.000;2023-09-19T00:10:15;99917.00;;;21.58
76007;BMP280;64699;0.000;0.000;2023-09-19T00:12:44;99924.19;;;21.61
76007;BMP280;64699;0.000;0.000;2023-09-19T00:15:10;99925.81;;;21.64
76007;BMP280;64699;0.000;0.000;2023-09-19T00:17:36;99918.81;;;21.63
76007;BMP280;64699;0.000;0.000;2023-09-19T00:20:02;99920.28;;;21.64
76007;BMP280;64699;0.000;0.000;2023-09-19T00:22:32;99913.28;;;21.63
76007;BMP280;64699;0.000;0.000;2023-09-19T00:24:57;99920.69;;;21.60
76007;BMP280;64699;0.000;0.000;2023-09-19T00:27:22;99913.69;;;21.59
76007;BMP280;64699;0.000;0.000;2023-09-19T00:29:47;99910.38;;;21.61
76007;BMP280;64699;0.000;0.000;2023-09-19T00:32:13;99919.38;;;21.61
76007;BMP280;64699;0.000;0.000;2023-09-19T00:34:38;99914.00;;;21.63
76007;BMP280;64699;0.000;0.000;2023-09-19T00:37:03;99911.25;;;21.63
76007;BMP280;64699;0.000;0.000;2023-09-19T00:39:28;99912.56;;;21.62
76007;BMP280;64699;0.000;0.000;2023-09-19T00:41:56;99906.31;;;21.62
76007;BMP280;64699;0.000;0.000;2023-09-19T00:44:21;99895.78;;;21.60
76007;BMP280;64699;0.000;0.000;2023-09-19T00:46:48;99900.78;;;21.62
76007;BMP280;64699;0.000;0.000;2023-09-19T00:49:15;99900.78;;;21.62
76007;BMP280;64699;0.000;0.000;2023-09-19T00:51:40;99900.44;;;21.58
76007;BMP280;64699;0.000;0.000;2023-09-19T00:54:11;99899.13;;;21.59
76007;BMP280;64699;0.000;0.000;2023-09-19T00:56:37;99884.19;;;21.62
76007;BMP280;64699;0.000;0.000;2023-09-19T00:59:05;99890.44;;;21.62
76007;BMP280;64699;0.000;0.000;2023-09-19T01:01:31;99887.50;;;21.60
76007;BMP280;64699;0.000;0.000;2023-09-19T01:03:56;99889.53;;;21.60
76007;BMP280;64699;0.000;0.000;2023-09-19T01:06:22;99877.75;;;21.59
76007;BMP280;64699;0.000;0.000;2023-09-19T01:08:47;99879.06;;;21.59
76007;BMP280;64699;0.000;0.000;2023-09-19T01:11:23;99894.19;;;21.58
76007;BMP280;64699;0.000;0.000;2023-09-19T01:13:58;99874.84;;;21.58
76007;BMP280;64699;0.000;0.000;2023-09-19T01:16:29;99891.56;;;21.59
76007;BMP280;64699;0.000;0.000;2023-09-19T01:19:02;99876.31;;;21.59
76007;BMP280;64699;0.000;0.000;2023-09-19T01:32:04;99858.28;;;21.50
76007;BMP280;64699;0.000;0.000;2023-09-19T01:37:17;99853.34;;;21.49
76007;BMP280;64699;0.000;0.000;2023-09-19T01:39:53;99850.41;;;21.47
76007;BMP280;64699;0.000;0.000;2023-09-19T01:42:37;99846.16;;;21.46
76007;BMP280;64699;0.000;0.000;2023-09-19T01:45:11;99850.22;;;21.45
76007;BMP280;64699;0.000;0.000;2023-09-19T01:47:40;99844.56;;;21.43
76007;BMP280;64699;0.000;0.000;2023-09-19T01:50:29;99844.56;;;21.43
76007;BMP280;64699;0.000;0.000;2023-09-19T01:53:07;99846.00;;;21.44
76007;BMP280;64699;0.000;0.000;2023-09-19T01:55:43;99843.09;;;21.42
76007;BMP280;64699;0.000;0.000;2023-09-19T01:58:29;99833.50;;;21.43
76007;BMP280;64699;0.000;0.000;2023-09-19T02:00:58;99835.13;;;21.46
76007;BMP280;64699;0.000;0.000;2023-09-19T02:03:25;99836.41;;;21.45
76007;BMP280;64699;0.000;0.000;2023-09-19T02:05:51;99839.91;;;21.45
76007;BMP280;64699;0.000;0.000;2023-09-19T02:08:17;99833.50;;;21.43
76007;BMP280;64699;0.000;0.000;2023-09-19T02:10:43;99837.56;;;21.42
76007;BMP280;64699;0.000;0.000;2023-09-19T02:13:14;99844.38;;;21.41
76007;BMP280;64699;0.000;0.000;2023-09-19T02:15:39;99830.56;;;21.41
76007;BMP280;64699;0.000;0.000;2023-09-19T02:18:04;99833.16;;;21.39
76007;BMP280;64699;0.000;0.000;2023-09-19T02:20:30;99827.06;;;21.40
76007;BMP280;64699;0.000;0.000;2023-09-19T02:22:58;99832.75;;;21.42
76007;BMP280;64699;0.000;0.000;2023-09-19T02:25:23;99830.75;;;21.43
76007;BMP280;64699;0.000;0.000;2023-09-19T02:27:51;99826.50;;;21.42
76007;BMP280;64699;0.000;0.000;2023-09-19T02:30:19;99822.59;;;21.45
76007;BMP280;64699;0.000;0.000;2023-09-19T02:32:45;99825.34;;;21.45
76007;BMP280;64699;0.000;0.000;2023-09-19T02:35:11;99822.59;;;21.45
76007;BMP280;64699;0.000;0.000;2023-09-19T02:37:36;99832.19;;;21.44
76007;BMP280;64699;0.000;0.000;2023-09-19T02:40:02;99814.31;;;21.45
76007;BMP280;64699;0.000;0.000;2023-09-19T02:42:27;99819.81;;;21.45
76007;BMP280;64699;0.000;0.000;2023-09-19T02:44:52;99815.06;;;21.45
76007;BMP280;64699;0.000;0.000;2023-09-19T02:47:18;99808.78;;;21.45
76007;BMP280;64699;0.000;0.000;2023-09-19T02:49:44;99805.13;;;21.42
76007;BMP280;64699;0.000;0.000;2023-09-19T02:52:09;99814.16;;;21.43
76007;BMP280;64699;0.000;0.000;2023-09-19T02:54:36;99798.13;;;21.41
76007;BMP280;64699;0.000;0.000;2023-09-19T02:57:01;99804.41;;;21.42
76007;BMP280;64699;0.000;0.000;2023-09-19T02:59:28;99803.66;;;21.41
76007;BMP280;64699;0.000;0.000;2023-09-19T03:01:54;99804.22;;;21.40
76007;BMP280;64699;0.000;0.000;2023-09-19T03:04:20;99791.88;;;21.41
76007;BMP280;64699;0.000;0.000;2023-09-19T03:06:45;99788.38;;;21.40
76007;BMP280;64699;0.000;0.000;2023-09-19T03:09:11;99784.88;;;21.40
76007;BMP280;64699;0.000;0.000;2023-09-19T03:11:36;99787.06;;;21.41
76007;BMP280;64699;0.000;0.000;2023-09-19T03:14:01;99790.41;;;21.40
76007;BMP280;64699;0.000;0.000;2023-09-19T03:16:27;99778.63;;;21.39
76007;BMP280;64699;0.000;0.000;2023-09-19T03:18:52;99780.66;;;21.39
76007;BMP280;64699;0.000;0.000;2023-09-19T03:21:17;99766.84;;;21.39
76007;BMP280;64699;0.000;0.000;2023-09-19T03:23:44;99773.09;;;21.39
76007;BMP280;64699;0.000;0.000;2023-09-19T03:26:12;99767.00;;;21.41
76007;BMP280;64699;0.000;0.000;2023-09-19T03:28:38;99760.00;;;21.40
76007;BMP280;64699;0.000;0.000;2023-09-19T03:31:04;99764.25;;;21.41
76007;BMP280;64699;0.000;0.000;2023-09-19T03:33:29;99769.78;;;21.41
76007;BMP280;64699;0.000;0.000;2023-09-19T03:35:57;99766.25;;;21.40
76007;BMP280;64699;0.000;0.000;2023-09-19T03:38:24;99760.00;;;21.40
76007;BMP280;64699;0.000;0.000;2023-09-19T03:40:49;99764.97;;;21.41
76007;BMP280;64699;0.000;0.000;2023-09-19T03:43:14;99760.19;;;21.42
76007;BMP280;64699;0.000;0.000;2023-09-19T03:45:39;99764.72;;;21.47
76007;BMP280;64699;0.000;0.000;2023-09-19T03:48:08;99767.50;;;21.47
76007;BMP280;64699;0.000;0.000;2023-09-19T03:50:34;99774.47;;;21.48
76007;BMP280;64699;0.000;0.000;2023-09-19T03:52:59;99767.50;;;21.47
76007;BMP280;64699;0.000;0.000;2023-09-19T03:55:25;99768.94;;;21.48
76007;BMP280;64699;0.000;0.000;2023-09-19T03:57:50;99761.25;;;21.46
76007;BMP280;64699;0.000;0.000;2023-09-19T04:00:15;99769.13;;;21.50
76007;BMP280;64699;0.000;0.000;2023-09-19T04:02:43;99761.25;;;21.46
76007;BMP280;64699;0.000;0.000;2023-09-19T04:05:08;99759.22;;;21.47
76007;BMP280;64699;0.000;0.000;2023-09-19T04:07:34;99774.47;;;21.48
76007;BMP280;64699;0.000;0.000;2023-09-19T04:09:59;99761.78;;;21.45
76007;BMP280;64699;0.000;0.000;2023-09-19T04:12:25;99760.19;;;21.42
76007;BMP280;64699;0.000;0.000;2023-09-19T04:14:50;99760.19;;;21.42
76007;BMP280;64699;0.000;0.000;2023-09-19T04:17:15;99754.66;;;21.42
76007;BMP280;64699;0.000;0.000;2023-09-19T04:19:40;99748.38;;;21.41
76007;BMP280;64699;0.000;0.000;2023-09-19T04:22:06;99747.66;;;21.41
76007;BMP280;64699;0.000;0.000;2023-09-19T04:24:32;99740.66;;;21.40
76007;BMP280;64699;0.000;0.000;2023-09-19T04:26:57;99729.03;;;21.41
76007;BMP280;64699;0.000;0.000;2023-09-19T04:29:24;99737.31;;;21.41
76007;BMP280;64699;0.000;0.000;2023-09-19T04:31:49;99727.56;;;21.40
76007;BMP280;64699;0.000;0.000;2023-09-19T04:34:14;99729.63;;;21.40
76007;BMP280;64699;0.000;0.000;2023-09-19T04:36:40;99729.63;;;21.40
76007;BMP280;64699;0.000;0.000;2023-09-19T04:39:06;99723.50;;;21.41
76007;BMP280;64699;0.000;0.000;2023-09-19T04:41:32;99719.84;;;21.39
76007;BMP280;64699;0.000;0.000;2023-09-19T04:43:57;99728.16;;;21.39
76007;BMP280;64699;0.000;0.000;2023-09-19T04:46:23;99724.81;;;21.40
76007;BMP280;64699;0.000;0.000;2023-09-19T04:48:49;99721.81;;;21.46
76007;BMP280;64699;0.000;0.000;2023-09-19T04:51:14;99720.09;;;21.50
76007;BMP280;64699;0.000;0.000;2023-09-19T04:53:40;99720.34;;;21.45
76007;BMP280;64699;0.000;0.000;2023-09-19T04:56:06;99722.63;;;21.39
76007;BMP280;64699;0.000;0.000;2023-09-19T04:58:32;99721.69;;;21.36
76007;BMP280;64699;0.000;0.000;2023-09-19T05:00:58;99717.91;;;21.32
76007;BMP280;64699;0.000;0.000;2023-09-19T05:03:24;99723.25;;;21.30
76007;BMP280;64699;0.000;0.000;2023-09-19T05:05:49;99716.84;;;21.27
76007;BMP280;64699;0.000;0.000;2023-09-19T05:08:15;99716.13;;;21.27
76007;BMP280;64699;0.000;0.000;2023-09-19T05:10:40;99717.41;;;21.26
76007;BMP280;64699;0.000;0.000;2023-09-19T05:13:05;99725.53;;;21.24
76007;BMP280;64699;0.000;0.000;2023-09-19T05:15:32;99711.00;;;21.23
76007;BMP280;64699;0.000;0.000;2023-09-19T05:17:58;99704.72;;;21.23
76007;BMP280;64699;0.000;0.000;2023-09-19T05:20:23;99706.03;;;21.22
76007;BMP280;64699;0.000;0.000;2023-09-19T05:22:59;99708.78;;;21.22
76007;BMP280;64699;0.000;0.000;2023-09-19T05:25:31;99701.78;;;21.21
76007;BMP280;64699;0.000;0.000;2023-09-19T05:27:57;99710.81;;;21.21
76007;BMP280;64699;0.000;0.000;2023-09-19T05:30:22;99703.81;;;21.20
76007;BMP280;64699;0.000;0.000;2023-09-19T05:32:48;99705.47;;;21.23
76007;BMP280;64699;0.000;0.000;2023-09-19T05:35:13;99704.00;;;21.22
76007;BMP280;64699;0.000;0.000;2023-09-19T05:37:38;99709.53;;;21.22
76007;BMP280;64699;0.000;0.000;2023-09-19T05:40:04;99706.56;;;21.20
76007;BMP280;64699;0.000;0.000;2023-09-19T05:42:35;99705.88;;;21.20
76007;BMP280;64699;0.000;0.000;2023-09-19T05:45:00;99702.38;;;21.19
76007;BMP280;64699;0.000;0.000;2023-09-19T05:47:25;99705.88;;;21.20
76007;BMP280;64699;0.000;0.000;2023-09-19T05:49:51;99700.34;;;21.20
76007;BMP280;64699;0.000;0.000;2023-09-19T05:52:17;99712.28;;;21.22
76007;BMP280;64699;0.000;0.000;2023-09-19T05:54:43;99710.41;;;21.25
76007;BMP280;64699;0.000;0.000;2023-09-19T05:57:08;99696.78;;;21.27
76007;BMP280;64699;0.000;0.000;2023-09-19T05:59:33;99700.25;;;21.27
76007;BMP280;64699;0.000;0.000;2023-09-19T06:01:59;99706.53;;;21.28
76007;BMP280;64699;0.000;0.000;2023-09-19T06:04:24;99708.72;;;21.29
76007;BMP280;64699;0.000;0.000;2023-09-19T06:06:50;99699.69;;;21.29
76007;BMP280;64699;0.000;0.000;2023-09-19T06:09:16;99699.84;;;21.31
76007;BMP280;64699;0.000;0.000;2023-09-19T06:11:42;99698.56;;;21.32
76007;BMP280;64699;0.000;0.000;2023-09-19T06:14:07;99692.88;;;21.30
76007;BMP280;64699;0.000;0.000;2023-09-19T06:16:32;99690.66;;;21.28
76007;BMP280;64699;0.000;0.000;2023-09-19T06:18:58;99696.78;;;21.27
76007;BMP280;64699;0.000;0.000;2023-09-19T06:21:25;99701.00;;;21.28
76007;BMP280;64699;0.000;0.000;2023-09-19T06:23:51;99699.53;;;21.27
76007;BMP280;64699;0.000;0.000;2023-09-19T06:26:17;99698.78;;;21.26
76007;BMP280;64699;0.000;0.000;2023-09-19T06:28:42;99703.91;;;21.30
76007;BMP280;64699;0.000;0.000;2023-09-19T06:31:07;99709.78;;;21.34
76007;BMP280;64699;0.000;0.000;2023-09-19T06:33:37;99706.84;;;21.32
76007;BMP280;64699;0.000;0.000;2023-09-19T06:36:04;99708.72;;;21.29
76007;BMP280;64699;0.000;0.000;2023-09-19T06:38:30;99717.59;;;21.28
76007;BMP280;64699;0.000;0.000;2023-09-19T06:40:56;99706.53;;;21.28
76007;BMP280;64699;0.000;0.000;2023-09-19T06:43:22;99717.41;;;21.26
76007;BMP280;64699;0.000;0.000;2023-09-19T06:45:47;99726.75;;;21.30
76007;BMP280;64699;0.000;0.000;2023-09-19T06:48:12;99717.91;;;21.32
76007;BMP280;64699;0.000;0.000;2023-09-19T06:50:38;99726.13;;;21.39
76007;BMP280;64699;0.000;0.000;2023-09-19T06:53:03;99727.03;;;21.42
76007;BMP280;64699;0.000;0.000;2023-09-19T06:55:28;99733.88;;;21.58
76007;BMP280;64699;0.000;0.000;2023-09-19T06:57:56;99739.84;;;21.47
76007;BMP280;64699;0.000;0.000;2023-09-19T07:00:21;99736.78;;;21.43
76007;BMP280;64699;0.000;0.000;2023-09-19T07:02:57;99744.25;;;21.50
76007;BMP280;64699;0.000;0.000;2023-09-19T07:05:23;99735.97;;;21.50
76007;BMP280;64699;0.000;0.000;2023-09-19T07:07:49;99740.19;;;21.51
76007;BMP280;64699;0.000;0.000;2023-09-19T07:10:14;99740.03;;;21.49
76007;BMP280;64699;0.000;0.000;2023-09-19T07:12:39;99738.22;;;21.44
76007;BMP280;64699;0.000;0.000;2023-09-19T07:15:06;99746.38;;;21.42
76007;BMP280;64699;0.000;0.000;2023-09-19T07:17:31;99743.25;;;21.38
76007;BMP280;64699;0.000;0.000;2023-09-19T07:19:58;99741.78;;;21.37
76007;BMP280;64699;0.000;0.000;2023-09-19T07:22:23;99750.66;;;21.35
76007;BMP280;64699;0.000;0.000;2023-09-19T07:24:49;99756.75;;;21.34
76007;BMP280;64699;0.000;0.000;2023-09-19T07:27:14;99764.28;;;21.33
76007;BMP280;64699;0.000;0.000;2023-09-19T07:29:39;99777.97;;;21.31
76007;BMP280;64699;0.000;0.000;2023-09-19T07:32:04;99771.69;;;21.31
76007;BMP280;64699;0.000;0.000;2023-09-19T07:34:31;99769.91;;;21.26
76007;BMP280;64699;0.000;0.000;2023-09-19T07:36:56;99768.84;;;21.21
76007;BMP280;64699;0.000;0.000;2023-09-19T07:39:21;99778.59;;;21.22
76007;BMP280;64699;0.000;0.000;2023-09-19T07:41:46;99768.09;;;21.21
76007;BMP280;64699;0.000;0.000;2023-09-19T07:44:13;99761.81;;;21.20
76007;BMP280;64699;0.000;0.000;2023-09-19T07:46:39;99774.00;;;21.17
76007;BMP280;64699;0.000;0.000;2023-09-19T07:49:04;99772.94;;;21.13
76007;BMP280;64699;0.000;0.000;2023-09-19T07:51:30;99780.34;;;21.10
76007;BMP280;64699;0.000;0.000;2023-09-19T07:53:55;99784.00;;;21.13
76007;BMP280;64699;0.000;0.000;2023-09-19T07:56:20;99784.72;;;21.13
76007;BMP280;64699;0.000;0.000;2023-09-19T07:58:47;99784.91;;;21.15
76007;BMP280;64699;0.000;0.000;2023-09-19T08:01:12;99781.53;;;21.17
76007;BMP280;64699;0.000;0.000;2023-09-19T08:03:39;99782.28;;;21.17
76007;BMP280;64699;0.000;0.000;2023-09-19T08:06:08;99779.72;;;21.19
76007;BMP280;64699;0.000;0.000;2023-09-19T08:08:33;99779.13;;;21.21
76007;BMP280;64699;0.000;0.000;2023-09-19T08:11:02;99775.09;;;21.22
76007;BMP280;64699;0.000;0.000;2023-09-19T08:13:27;99778.59;;;21.22
76007;BMP280;64699;0.000;0.000;2023-09-19T08:15:53;99782.06;;;21.23
76007;BMP280;64699;0.000;0.000;2023-09-19T08:18:18;99772.50;;;21.24
76007;BMP280;64699;0.000;0.000;2023-09-19T08:20:43;99780.59;;;21.22
76007;BMP280;64699;0.000;0.000;2023-09-19T08:23:13;99788.91;;;21.22
76007;BMP280;64699;0.000;0.000;2023-09-19T08:25:38;99787.28;;;21.19
76007;BMP280;64699;0.000;0.000;2023-09-19T08:28:04;99788.75;;;21.20
76007;BMP280;64699;0.000;0.000;2023-09-19T08:30:33;99791.50;;;21.20
76007;BMP280;64699;0.000;0.000;2023-09-19T08:32:59;99788.75;;;21.20
76007;BMP280;64699;0.000;0.000;2023-09-19T08:35:25;99788.16;;;21.21
76007;BMP280;64699;0.000;0.000;2023-09-19T08:37:50;99787.06;;;21.24
76007;BMP280;64699;0.000;0.000;2023-09-19T08:40:16;99782.06;;;21.23
76007;BMP280;64699;0.000;0.000;2023-09-19T08:45:14;99791.38;;;21.35
76007;BMP280;64699;0.000;0.000;2023-09-19T08:47:43;99788.53;;;21.42
76007;BMP280;64699;0.000;0.000;2023-09-19T08:50:19;99791.88;;;21.41
76007;BMP280;64699;0.000;0.000;2023-09-19T08:52:44;99790.78;;;21.36
76007;BMP280;64699;0.000;0.000;2023-09-19T08:55:12;99784.78;;;21.30
76007;BMP280;64699;0.000;0.000;2023-09-19T08:57:38;99793.47;;;21.27
76007;BMP280;64699;0.000;0.000;2023-09-19T09:00:06;99776.91;;;21.27
76007;BMP280;64699;0.000;0.000;2023-09-19T09:02:35;99776.16;;;21.26
76007;BMP280;64699;0.000;0.000;2023-09-19T09:05:01;99776.91;;;21.27
76007;BMP280;64699;0.000;0.000;2023-09-19T09:07:30;99780.97;;;21.26
76007;BMP280;64699;0.000;0.000;2023-09-19T09:09:55;99784.97;;;21.25
76007;BMP280;64699;0.000;0.000;2023-09-19T09:12:21;99784.97;;;21.25
76007;BMP280;64699;0.000;0.000;2023-09-19T09:14:47;99782.06;;;21.23
76007;BMP280;64699;0.000;0.000;2023-09-19T09:17:16;99794.03;;;21.25
76007;BMP280;64699;0.000;0.000;2023-09-19T09:19:45;99794.59;;;21.24
76007;BMP280;64699;0.000;0.000;2023-09-19T09:22:11;99804.19;;;21.23
76007;BMP280;64699;0.000;0.000;2023-09-19T09:24:37;99798.09;;;21.24
76007;BMP280;64699;0.000;0.000;2023-09-19T09:27:04;99808.22;;;21.22
76007;BMP280;64699;0.000;0.000;2023-09-19T09:29:39;99805.66;;;21.24
76007;BMP280;64699;0.000;0.000;2023-09-19T09:32:25;99812.81;;;21.27
76007;BMP280;64699;0.000;0.000;2023-09-19T09:34:51;99804.53;;;21.27
76007;BMP280;64699;0.000;0.000;2023-09-19T09:37:17;99821.09;;;21.27
76007;BMP280;64699;0.000;0.000;2023-09-19T09:39:52;99825.88;;;21.26
76007;BMP280;64699;0.000;0.000;2023-09-19T09:42:32;99823.88;;;21.27
76007;BMP280;64699;0.000;0.000;2023-09-19T09:45:12;99824.00;;;21.29
76007;BMP280;64699;0.000;0.000;2023-09-19T09:47:41;99823.88;;;21.27
76007;BMP280;64699;0.000;0.000;2023-09-19T09:50:07;99831.41;;;21.26
76007;BMP280;64699;0.000;0.000;2023-09-19T09:52:43;99830.69;;;21.26
76007;BMP280;64699;0.000;0.000;2023-09-19T09:55:09;99833.44;;;21.26
76007;BMP280;64699;0.000;0.000;2023-09-19T09:57:35;99845.97;;;21.27
76007;BMP280;64699;0.000;0.000;2023-09-19T10:00:00;99853.50;;;21.26
76007;BMP280;64699;0.000;0.000;2023-09-19T10:02:38;99848.72;;;21.27
76007;BMP280;64699;0.000;0.000;2023-09-19T10:05:15;99856.81;;;21.25
76007;BMP280;64699;0.000;0.000;2023-09-19T10:07:52;99856.81;;;21.25
76007;BMP280;64699;0.000;0.000;2023-09-19T10:13:13;99867.16;;;21.24
76007;BMP280;64699;0.000;0.000;2023-09-19T10:15:43;99879.91;;;21.20
76007;BMP280;64699;0.000;0.000;2023-09-19T10:18:15;99881.19;;;21.19
76007;BMP280;64699;0.000;0.000;2023-09-19T10:20:43;99894.81;;;21.17
76007;BMP280;64699;0.000;0.000;2023-09-19T10:23:11;99885.66;;;21.14
76007;BMP280;64699;0.000;0.000;2023-09-19T10:25:41;99877.91;;;21.13
76007;BMP280;64699;0.000;0.000;2023-09-19T10:28:08;99870.19;;;21.11
76007;BMP280;64699;0.000;0.000;2023-09-19T10:30:46;99880.16;;;21.07
76007;BMP280;64699;0.000;0.000;2023-09-19T10:33:19;99883.81;;;21.09
76007;BMP280;64699;0.000;0.000;2023-09-19T10:35:48;99884.56;;;21.10
76007;BMP280;64699;0.000;0.000;2023-09-19T10:38:14;99885.13;;;21.01
76007;BMP280;64699;0.000;0.000;2023-09-19T10:40:44;99894.56;;;20.98
76007;BMP280;64699;0.000;0.000;2023-09-19T10:43:11;99887.56;;;20.97
76007;BMP280;64699;0.000;0.000;2023-09-19T10:45:36;99883.16;;;20.94
76007;BMP280;64699;0.000;0.000;2023-09-19T10:48:05;99889.09;;;20.90
76007;BMP280;64699;0.000;0.000;2023-09-19T10:50:36;99885.75;;;20.92
76007;BMP280;64699;0.000;0.000;2023-09-19T10:53:06;99892.97;;;20.87
76007;BMP280;64699;0.000;0.000;2023-09-19T10:55:33;99890.94;;;20.88
76007;BMP280;64699;0.000;0.000;2023-09-19T10:58:00;99883.06;;;20.84
76007;BMP280;64699;0.000;0.000;2023-09-19T11:00:26;99892.03;;;20.85
76007;BMP280;64699;0.000;0.000;2023-09-19T11:05:36;99887.84;;;20.84
76007;BMP280;64699;0.000;0.000;2023-09-19T11:08:09;99885.81;;;20.84
76007;BMP280;64699;0.000;0.000;2023-09-19T11:10:45;99876.59;;;20.82
76007;BMP280;64699;0.000;0.000;2023-09-19T11:13:34;99876.78;;;20.84
76007;BMP280;64699;0.000;0.000;2023-09-19T11:16:02;99869.94;;;20.85
76007;BMP280;64699;0.000;0.000;2023-09-19T11:24:27;99884.13;;;20.89
76007;BMP280;64699;0.000;0.000;2023-09-19T11:26:57;99895.00;;;20.87
76007;BMP280;64699;0.000;0.000;2023-09-19T11:29:33;99897.19;;;20.88
76007;BMP280;64699;0.000;0.000;2023-09-19T11:31:58;99890.22;;;20.87
76007;BMP280;64699;0.000;0.000;2023-09-19T11:37:01;99904.00;;;20.87
76007;BMP280;64699;0.000;0.000;2023-09-19T11:39:30;99902.00;;;20.88
76007;BMP280;64699;0.000;0.000;2023-09-19T11:41:55;99897.91;;;20.89
76007;BMP280;64699;0.000;0.000;2023-09-19T11:44:32;99903.28;;;20.87
76007;BMP280;64699;0.000;0.000;2023-09-19T11:46:59;99906.06;;;20.87
76007;BMP280;64699;0.000;0.000;2023-09-19T11:49:33;99904.56;;;20.86
76007;BMP280;64699;0.000;0.000;2023-09-19T11:52:00;99901.06;;;20.85
76007;BMP280;64699;0.000;0.000;2023-09-19T11:54:30;99913.59;;;20.86
76007;BMP280;64699;0.000;0.000;2023-09-19T11:56:59;99908.97;;;20.89
76007;BMP280;64699;0.000;0.000;2023-09-19T11:59:28;99908.81;;;20.87
76007;BMP280;64699;0.000;0.000;2023-09-19T12:01:55;99906.78;;;20.87
76007;BMP280;64699;0.000;0.000;2023-09-19T12:04:36;99907.53;;;20.88
76007;BMP280;64699;0.000;0.000;2023-09-19T12:07:06;99911.56;;;20.87
76007;BMP280;64699;0.000;0.000;2023-09-19T12:09:36;99903.44;;;20.89
76007;BMP280;64699;0.000;0.000;2023-09-19T12:12:01;99899.25;;;20.88
76007;BMP280;64699;0.000;0.000;2023-09-19T12:14:26;99910.28;;;20.88
76007;BMP280;64699;0.000;0.000;2023-09-19T12:16:55;99906.94;;;20.89
76007;BMP280;64699;0.000;0.000;2023-09-19T12:19:21;99917.44;;;20.91
76007;BMP280;64699;0.000;0.000;2023-09-19T12:21:59;99911.91;;;20.91
76007;BMP280;64699;0.000;0.000;2023-09-19T12:24:29;99915.97;;;20.90
76007;BMP280;64699;0.000;0.000;2023-09-19T12:26:59;99921.47;;;20.90
76007;BMP280;64699;0.000;0.000;2023-09-19T12:29:26;99922.78;;;20.89
76007;BMP280;64699;0.000;0.000;2023-09-19T12:31:55;99922.22;;;20.90
76007;BMP280;64699;0.000;0.000;2023-09-19T12:34:26;99929.94;;;20.92
76007;BMP280;64699;0.000;0.000;2023-09-19T12:37:15;99931.78;;;20.89
76007;BMP280;64699;0.000;0.000;2023-09-19T12:39:47;99931.38;;;20.93
76007;BMP280;64699;0.000;0.000;2023-09-19T12:42:17;99947.59;;;20.96
76007;BMP280;64699;0.000;0.000;2023-09-19T12:44:43;99945.03;;;20.98
76007;BMP280;64699;0.000;0.000;2023-09-19T12:47:12;99948.31;;;20.97
76007;BMP280;64699;0.000;0.000;2023-09-19T12:52:25;99968.97;;;20.96
76007;BMP280;64699;0.000;0.000;2023-09-19T12:54:51;99964.91;;;20.97
76007;BMP280;64699;0.000;0.000;2023-09-19T12:57:23;99953.81;;;21.12
76007;BMP280;64699;0.000;0.000;2023-09-19T12:59:48;99955.50;;;21.39
76007;BMP280;64699;0.000;0.000;2023-09-19T13:02:16;99950.34;;;21.36
76007;BMP280;64699;0.000;0.000;2023-09-19T13:04:51;99947.41;;;21.34
76007;BMP280;64699;0.000;0.000;2023-09-19T13:10:04;99933.41;;;21.32
76007;BMP280;64699;0.000;0.000;2023-09-19T13:12:36;99937.44;;;21.38
76007;BMP280;64699;0.000;0.000;2023-09-19T13:15:07;99936.69;;;21.38
76007;BMP280;64699;0.000;0.000;2023-09-19T13:17:51;99947.84;;;21.23
76007;BMP280;64699;0.000;0.000;2023-09-19T13:20:21;99941.44;;;21.13
76007;BMP280;64699;0.000;0.000;2023-09-19T13:22:49;99940.91;;;21.07
76007;BMP280;64699;0.000;0.000;2023-09-19T13:25:19;99940.59;;;21.03
76007;BMP280;64699;0.000;0.000;2023-09-19T13:27:45;99944.59;;;21.02
76007;BMP280;64699;0.000;0.000;2023-09-19T13:30:11;99943.88;;;21.01
76007;BMP280;64699;0.000;0.000;2023-09-19T13:32:37;99953.50;;;21.00
76007;BMP280;64699;0.000;0.000;2023-09-19T13:35:04;99946.50;;;20.99
76007;BMP280;64699;0.000;0.000;2023-09-19T13:37:30;99939.31;;;20.96
76007;BMP280;64699;0.000;0.000;2023-09-19T13:39:55;99946.88;;;20.96
76007;BMP280;64699;0.000;0.000;2023-09-19T13:42:22;99944.13;;;20.96
76007;BMP280;64699;0.000;0.000;2023-09-19T13:44:47;99956.47;;;20.95
76007;BMP280;64699;0.000;0.000;2023-09-19T13:47:13;99946.88;;;20.96
76007;BMP280;64699;0.000;0.000;2023-09-19T13:49:40;99954.41;;;20.95
76007;BMP280;64699;0.000;0.000;2023-09-19T13:52:05;99950.72;;;20.93
76007;BMP280;64699;0.000;0.000;2023-09-19T13:54:30;99952.03;;;20.92
76007;BMP280;64699;0.000;0.000;2023-09-19T13:56:56;99951.47;;;20.93
76007;BMP280;64699;0.000;0.000;2023-09-19T13:59:21;99958.31;;;20.92
76007;BMP280;64699;0.000;0.000;2023-09-19T14:01:48;99959.00;;;20.93
76007;BMP280;64699;0.000;0.000;2023-09-19T14:04:14;99950.72;;;20.93
76007;BMP280;64699;0.000;0.000;2023-09-19T14:06:41;99954.22;;;20.93
76007;BMP280;64699;0.000;0.000;2023-09-19T14:09:06;99952.03;;;20.92
76007;BMP280;64699;0.000;0.000;2023-09-19T14:11:32;99959.59;;;20.91
76007;BMP280;64699;0.000;0.000;2023-09-19T14:13:58;99958.31;;;20.92
76007;BMP280;64699;0.000;0.000;2023-09-19T14:16:24;99950.72;;;20.93
76007;BMP280;64699;0.000;0.000;2023-09-19T14:18:49;99963.09;;;20.92
76007;BMP280;64699;0.000;0.000;2023-09-19T14:21:15;99958.84;;;20.91
76007;BMP280;64699;0.000;0.000;2023-09-19T14:23:40;99962.38;;;20.91
76007;BMP280;64699;0.000;0.000;2023-09-19T14:26:07;99960.31;;;20.92
76007;BMP280;64699;0.000;0.000;2023-09-19T14:28:33;99963.84;;;20.92
76007;BMP280;64699;0.000;0.000;2023-09-19T14:31:07;99966.59;;;20.92
76007;BMP280;64699;0.000;0.000;2023-09-19T14:33:32;99972.13;;;20.92
76007;BMP280;64699;0.000;0.000;2023-09-19T14:35:58;99969.34;;;20.92
76007;BMP280;64699;0.000;0.000;2023-09-19T14:38:23;99962.38;;;20.91
76007;BMP280;64699;0.000;0.000;2023-09-19T14:40:48;99967.28;;;20.93
76007;BMP280;64699;0.000;0.000;2023-09-19T14:43:15;99966.59;;;20.92
76007;BMP280;64699;0.000;0.000;2023-09-19T14:45:40;99969.91;;;20.91
76007;BMP280;64699;0.000;0.000;2023-09-19T14:48:05;99974.88;;;20.92
76007;BMP280;64699;0.000;0.000;2023-09-19T14:50:31;99976.31;;;20.93
76007;BMP280;64699;0.000;0.000;2023-09-19T14:52:59;99975.56;;;20.93
76007;BMP280;64699;0.000;0.000;2023-09-19T14:55:26;99972.81;;;20.93
76007;BMP280;64699;0.000;0.000;2023-09-19T14:57:54;99982.56;;;20.94